Time;durP1;ratioP1;P1;durP2;ratioP2;P2;SDS_P1;SDS_P2;PMS_P1;PMS_P2;Temp;Humidity;BMP_temperature;BMP_pressure;BME280_temperature;BME280_humidity;BME280_pressure;Samples;Min_cycle;Max_cycle;Signal;HPM_P1;HPM_P2
2021/04/12 00:00:31;;;;;;;5.97;0.50;;;2.20;99.90;;;;;;5071678;28;20028;-72
2021/04/12 00:03:14;;;;;;;0.90;0.40;;;2.20;99.90;;;;;;5072053;28;20031;-71
2021/04/12 00:05:47;;;;;;;1.27;0.70;;;2.20;99.90;;;;;;5072616;28;20078;-71
2021/04/12 00:08:50;;;;;;;1.65;0.80;;;2.20;99.90;;;;;;5071404;28;20068;-72
2021/04/12 00:11:38;;;;;;;2.70;0.50;;;2.30;99.90;;;;;;5071537;28;20036;-71
2021/04/12 00:14:24;;;;;;;1.10;0.82;;;2.30;99.90;;;;;;5071777;28;20491;-73
2021/04/12 00:17:20;;;;;;;3.15;1.52;;;2.20;99.90;;;;;;5072153;28;20035;-71
2021/04/12 00:19:58;;;;;;;1.00;0.65;;;2.30;99.90;;;;;;5071835;28;20027;-72
2021/04/12 00:22:42;;;;;;;3.42;1.05;;;2.30;99.90;;;;;;5071183;28;20468;-72
2021/04/12 00:25:15;;;;;;;2.20;0.70;;;2.30;99.90;;;;;;5071706;28;20060;-73
2021/04/12 00:27:46;;;;;;;3.63;0.93;;;2.30;99.90;;;;;;5072216;28;20017;-73
2021/04/12 00:30:24;;;;;;;1.63;0.80;;;2.30;99.90;;;;;;5070784;28;20032;-72
2021/04/12 00:33:07;;;;;;;3.70;1.33;;;2.30;99.90;;;;;;5072122;28;20025;-72
2021/04/12 00:35:49;;;;;;;3.17;0.90;;;2.40;99.90;;;;;;5071225;28;20032;-72
2021/04/12 00:38:29;;;;;;;1.48;0.75;;;2.50;99.90;;;;;;5071688;28;20021;-72
2021/04/12 00:41:05;;;;;;;4.78;1.15;;;2.60;99.90;;;;;;5059136;28;20025;-72
2021/04/12 00:43:42;;;;;;;4.57;1.00;;;2.70;99.90;;;;;;5071206;28;20024;-71
2021/04/12 00:46:46;;;;;;;3.72;0.82;;;2.70;99.90;;;;;;5071530;28;20437;-72
2021/04/12 00:49:36;;;;;;;3.00;0.82;;;2.70;99.90;;;;;;5071189;28;20024;-72
2021/04/12 00:52:14;;;;;;;1.83;0.90;;;2.60;99.90;;;;;;5071833;28;20028;-71
2021/04/12 00:55:16;;;;;;;2.60;0.70;;;2.50;99.90;;;;;;5071206;28;20067;-71
2021/04/12 00:58:18;;;;;;;1.50;0.80;;;2.50;99.90;;;;;;5060516;28;20461;-73
2021/04/12 01:00:52;;;;;;;5.10;0.90;;;2.40;99.90;;;;;;5072306;28;20020;-72
2021/04/12 01:03:27;;;;;;;1.70;0.73;;;2.30;99.90;;;;;;5071464;28;20119;-73
2021/04/12 01:06:11;;;;;;;3.67;1.00;;;2.30;99.90;;;;;;5063941;28;20384;-72
2021/04/12 01:08:59;;;;;;;3.85;0.98;;;2.30;99.90;;;;;;5058746;28;20504;-72
2021/04/12 01:12:06;;;;;;;5.18;1.00;;;2.30;99.90;;;;;;5070602;28;20044;-72
2021/04/12 01:15:07;;;;;;;2.58;1.13;;;2.30;99.90;;;;;;5040204;28;20419;-72
2021/04/12 01:17:33;;;;;;;;;;;2.30;99.90;;;;;;5031967;28;20078;-72
2021/04/12 01:20:36;;;;;;;2.45;0.85;;;2.20;99.90;;;;;;5064393;28;19912;-72
2021/04/12 01:23:31;;;;;;;5.32;2.00;;;2.20;99.90;;;;;;5068378;28;20078;-73
2021/04/12 01:26:25;;;;;;;3.28;1.25;;;2.20;99.90;;;;;;5060977;28;20028;-72
2021/04/12 01:29:28;;;;;;;3.05;0.93;;;2.10;99.90;;;;;;5027387;28;20165;-73
2021/04/12 01:32:20;;;;;;;1.88;1.33;;;2.10;99.90;;;;;;5067421;28;20017;-73
2021/04/12 01:35:23;;;;;;;2.70;1.30;;;2.10;99.90;;;;;;5071298;28;20017;-73
2021/04/12 01:37:54;;;;;;;3.05;1.20;;;2.00;99.90;;;;;;5063231;28;20021;-71
2021/04/12 01:40:47;;;;;;;2.30;1.23;;;2.10;99.90;;;;;;5059774;28;20029;-71
2021/04/12 01:43:24;;;;;;;1.17;1.02;;;2.10;99.90;;;;;;5074738;28;20056;-72
2021/04/12 01:46:05;;;;;;;1.70;1.00;;;2.10;99.90;;;;;;5074158;28;20043;-72
2021/04/12 01:48:45;;;;;;;1.20;1.05;;;2.10;99.90;;;;;;5074809;28;20025;-72
2021/04/12 01:51:33;;;;;;;1.65;0.93;;;2.10;99.90;;;;;;5070774;28;20070;-72
2021/04/12 01:54:30;;;;;;;2.78;1.30;;;2.20;99.90;;;;;;5067061;28;20028;-71
2021/04/12 01:57:10;;;;;;;2.83;1.23;;;2.10;99.90;;;;;;5074874;28;20016;-72
2021/04/12 02:00:13;;;;;;;2.42;1.10;;;2.20;99.90;;;;;;5074606;28;20468;-72
2021/04/12 02:03:17;;;;;;;1.30;0.93;;;2.20;99.90;;;;;;5074381;28;20035;-72
2021/04/12 02:06:00;;;;;;;1.90;1.00;;;2.20;99.90;;;;;;5074570;28;20028;-72
2021/04/12 02:09:09;;;;;;;2.83;0.70;;;2.40;99.90;;;;;;5073174;28;20044;-72
2021/04/12 02:11:34;;;;;;;1.90;1.02;;;2.40;99.90;;;;;;5074532;28;20064;-72
2021/04/12 02:14:32;;;;;;;2.60;0.70;;;2.50;99.90;;;;;;5073845;28;20045;-72
2021/04/12 02:17:11;;;;;;;2.75;0.90;;;2.50;99.90;;;;;;5074532;28;20035;-72
2021/04/12 02:20:20;;;;;;;6.38;1.13;;;2.40;99.90;;;;;;5074572;28;20056;-71
2021/04/12 02:23:11;;;;;;;1.35;1.10;;;2.50;99.90;;;;;;5009215;28;20110;-73
2021/04/12 02:25:36;;;;;;;;;;;2.50;99.90;;;;;;5062104;28;20021;-72
2021/04/12 02:28:35;;;;;;;0.70;0.70;;;2.50;99.90;;;;;;5073760;28;19910;-72
2021/04/12 02:31:03;;;;;;;4.10;1.02;;;2.50;99.90;;;;;;5053580;28;20072;-71
2021/04/12 02:33:43;;;;;;;1.48;0.63;;;2.50;99.90;;;;;;5057496;28;20039;-72
2021/04/12 02:36:38;;;;;;;2.80;1.92;;;2.50;99.90;;;;;;5065428;28;20043;-72
2021/04/12 02:39:44;;;;;;;1.92;1.00;;;2.50;99.90;;;;;;5068373;28;20036;-71
2021/04/12 02:42:21;;;;;;;1.70;1.02;;;2.40;99.90;;;;;;5073099;28;20063;-72
2021/04/12 02:45:19;;;;;;;2.70;0.98;;;2.40;99.90;;;;;;5060208;28;20013;-72
2021/04/12 02:48:06;;;;;;;3.53;0.90;;;2.30;99.90;;;;;;5073204;28;20025;-72
2021/04/12 02:50:53;;;;;;;0.90;0.85;;;2.30;99.90;;;;;;5072809;28;20040;-71
2021/04/12 02:53:50;;;;;;;1.30;0.95;;;2.30;99.90;;;;;;5073464;28;20450;-71
2021/04/12 02:56:50;;;;;;;1.08;0.95;;;2.30;99.90;;;;;;5072674;28;20012;-72
2021/04/12 02:59:44;;;;;;;0.75;0.75;;;2.30;99.90;;;;;;5073451;28;20376;-72
2021/04/12 03:02:34;;;;;;;1.20;0.70;;;2.30;99.90;;;;;;5031965;28;20048;-72
2021/04/12 03:05:24;;;;;;;2.47;0.90;;;2.20;99.90;;;;;;5068544;28;20017;-72
2021/04/12 03:08:08;;;;;;;2.30;0.75;;;2.10;99.90;;;;;;5066525;28;20062;-72
2021/04/12 03:11:04;;;;;;;5.00;1.70;;;2.00;99.90;;;;;;5060063;28;20074;-71
2021/04/12 03:14:00;;;;;;;2.30;0.90;;;2.00;99.90;;;;;;5073430;28;20025;-72
2021/04/12 03:16:44;;;;;;;2.50;0.73;;;2.00;99.90;;;;;;5072753;28;20083;-72
2021/04/12 03:19:47;;;;;;;1.52;0.85;;;2.00;99.90;;;;;;5072448;28;20047;-72
2021/04/12 03:22:40;;;;;;;1.35;0.95;;;1.90;99.90;;;;;;5067253;28;20079;-72
2021/04/12 03:25:32;;;;;;;6.82;1.05;;;1.90;99.90;;;;;;5067006;28;20117;-71
2021/04/12 03:28:22;;;;;;;3.20;0.70;;;1.90;99.90;;;;;;5073106;28;20052;-72
2021/04/12 03:31:02;;;;;;;2.97;1.00;;;1.80;99.90;;;;;;5072761;28;20032;-72
2021/04/12 03:33:38;;;;;;;1.27;0.75;;;1.80;99.90;;;;;;5071731;28;20142;-73
2021/04/12 03:36:07;;;;;;;4.97;0.85;;;1.70;99.90;;;;;;5072349;28;20500;-72
2021/04/12 03:38:36;;;;;;;2.60;1.00;;;1.70;99.90;;;;;;5071959;28;20032;-72
2021/04/12 03:41:13;;;;;;;2.05;1.00;;;1.70;99.90;;;;;;5072688;28;20036;-71
2021/04/12 03:43:38;;;;;;;0.90;0.80;;;1.70;99.90;;;;;;5059630;28;20021;-72
2021/04/12 03:46:38;;;;;;;0.70;0.65;;;1.60;99.90;;;;;;5070449;28;20364;-72
2021/04/12 03:49:12;;;;;;;1.58;0.80;;;1.60;99.90;;;;;;5072182;28;20456;-72
2021/04/12 03:52:14;;;;;;;2.03;0.95;;;1.60;99.90;;;;;;5072642;28;20083;-72
2021/04/12 03:55:05;;;;;;;0.70;0.70;;;1.60;99.90;;;;;;5071839;28;20031;-72
2021/04/12 03:57:46;;;;;;;1.65;0.98;;;1.50;99.90;;;;;;5072366;28;20447;-72
2021/04/12 04:00:26;;;;;;;1.27;0.70;;;1.50;99.90;;;;;;5071245;28;20028;-72
2021/04/12 04:02:57;;;;;;;0.57;0.57;;;1.50;99.90;;;;;;5072448;28;20021;-72
2021/04/12 04:05:41;;;;;;;1.42;0.80;;;1.50;99.90;;;;;;5072238;28;20021;-72
2021/04/12 04:08:41;;;;;;;1.27;0.93;;;1.50;99.90;;;;;;5070972;28;20529;-71
2021/04/12 04:11:25;;;;;;;1.15;1.00;;;1.40;99.90;;;;;;5026165;28;20131;-72
2021/04/12 04:14:18;;;;;;;2.15;0.85;;;1.40;99.90;;;;;;5071649;28;20012;-72
2021/04/12 04:17:18;;;;;;;1.27;0.88;;;1.50;99.90;;;;;;5072107;28;20142;-72
2021/04/12 04:19:58;;;;;;;5.82;1.00;;;1.50;99.90;;;;;;5072072;28;20404;-71
2021/04/12 04:22:30;;;;;;;4.57;0.85;;;1.50;99.90;;;;;;5071175;28;20036;-72
2021/04/12 04:25:08;;;;;;;1.15;1.05;;;1.40;99.90;;;;;;5071971;28;20071;-72
2021/04/12 04:27:52;;;;;;;5.65;1.10;;;1.50;99.90;;;;;;5071241;28;20043;-73
2021/04/12 04:30:39;;;;;;;1.35;1.10;;;1.50;99.90;;;;;;5071736;28;20419;-72
2021/04/12 04:33:10;;;;;;;5.65;1.20;;;1.50;99.90;;;;;;5071675;28;20423;-72
2021/04/12 04:36:07;;;;;;;2.83;1.60;;;1.50;99.90;;;;;;5057752;28;20495;-72
2021/04/12 04:38:56;;;;;;;1.30;1.00;;;1.60;99.90;;;;;;5071884;28;20020;-72
2021/04/12 04:42:01;;;;;;;2.78;1.10;;;1.60;99.90;;;;;;5059771;28;20417;-71
2021/04/12 04:44:38;;;;;;;4.20;1.23;;;1.60;99.90;;;;;;5071606;28;20066;-72
2021/04/12 04:47:41;;;;;;;6.28;1.63;;;1.70;99.90;;;;;;5071579;28;20032;-72
2021/04/12 04:50:18;;;;;;;3.67;1.80;;;1.70;99.90;;;;;;5060646;28;20101;-73
2021/04/12 04:53:17;;;;;;;3.63;1.60;;;1.70;99.90;;;;;;5071344;28;20503;-72
2021/04/12 04:56:10;;;;;;;2.08;1.20;;;1.70;99.90;;;;;;5070766;28;20437;-72
2021/04/12 04:59:03;;;;;;;4.10;2.08;;;1.70;99.90;;;;;;5071693;28;20162;-72
2021/04/12 05:01:46;;;;;;;1.73;1.38;;;1.70;99.90;;;;;;5071658;28;20092;-72
2021/04/12 05:04:36;;;;;;;4.43;2.05;;;1.80;99.90;;;;;;5070581;28;20139;-72
2021/04/12 05:07:23;;;;;;;1.65;1.52;;;1.80;99.90;;;;;;5071466;28;20329;-72
2021/04/12 05:10:07;;;;;;;2.70;1.85;;;1.90;99.90;;;;;;5070843;28;20044;-72
2021/04/12 05:12:52;;;;;;;2.75;1.95;;;2.00;99.90;;;;;;5073608;28;20384;-71
2021/04/12 05:16:08;;;;;;;2.72;1.75;;;2.00;99.90;;;;;;5062409;28;20021;-71
2021/04/12 05:18:41;;;;;;;4.50;1.98;;;2.10;99.90;;;;;;5068124;28;20032;-71
2021/04/12 05:21:09;;;;;;;6.20;2.13;;;2.10;99.90;;;;;;5079315;28;20395;-72
2021/04/12 05:24:12;;;;;;;2.85;1.95;;;2.10;99.90;;;;;;5074433;28;20495;-72
2021/04/12 05:27:09;;;;;;;9.85;1.88;;;2.10;99.90;;;;;;5074600;28;20062;-71
2021/04/12 05:30:02;;;;;;;3.20;1.70;;;2.10;99.90;;;;;;5071395;28;20040;-71
2021/04/12 05:32:46;;;;;;;2.72;1.77;;;2.10;99.90;;;;;;5070996;28;20055;-72
2021/04/12 05:35:34;;;;;;;4.10;2.25;;;2.10;99.90;;;;;;5071574;28;20028;-72
2021/04/12 05:38:41;;;;;;;2.67;1.95;;;2.10;99.90;;;;;;5073408;28;20492;-71
2021/04/12 05:41:31;;;;;;;2.83;2.05;;;2.10;99.90;;;;;;5072649;28;20107;-72
2021/04/12 05:44:11;;;;;;;3.83;2.22;;;2.20;99.90;;;;;;5074226;28;20024;-71
2021/04/12 05:47:07;;;;;;;6.07;2.50;;;2.20;99.90;;;;;;5068215;28;20131;-71
2021/04/12 05:50:12;;;;;;;4.88;2.53;;;2.30;99.90;;;;;;5062196;28;20480;-72
2021/04/12 05:52:46;;;;;;;2.92;2.63;;;2.30;99.90;;;;;;5070272;28;20031;-71
2021/04/12 05:55:48;;;;;;;5.95;2.30;;;2.50;99.90;;;;;;5062192;28;20092;-71
2021/04/12 05:58:37;;;;;;;11.60;3.05;;;2.70;99.90;;;;;;5058491;28;20023;-72
2021/04/12 06:01:38;;;;;;;4.93;2.50;;;2.80;99.90;;;;;;5061587;28;20392;-72
2021/04/12 06:04:20;;;;;;;3.95;1.60;;;3.10;99.90;;;;;;5058094;28;20047;-72
2021/04/12 06:07:13;;;;;;;1.45;0.80;;;3.30;99.90;;;;;;5060075;28;20481;-72
2021/04/12 06:10:00;;;;;;;4.32;1.20;;;3.30;99.90;;;;;;5062333;28;20097;-72
2021/04/12 06:12:48;;;;;;;3.33;1.27;;;3.30;99.90;;;;;;5056856;28;20017;-72
2021/04/12 06:15:36;;;;;;;1.02;0.90;;;3.20;99.90;;;;;;5052961;28;20020;-71
2021/04/12 06:18:23;;;;;;;2.47;1.00;;;3.20;99.90;;;;;;5061248;28;20017;-72
2021/04/12 06:21:27;;;;;;;3.28;1.02;;;3.20;99.90;;;;;;5060231;28;20033;-73
2021/04/12 06:24:15;;;;;;;1.42;1.10;;;3.20;99.90;;;;;;5059203;28;20114;-72
2021/04/12 06:27:05;;;;;;;2.22;1.40;;;3.10;99.90;;;;;;5059581;28;20024;-71
2021/04/12 06:29:45;;;;;;;2.72;1.40;;;3.10;99.90;;;;;;5058710;28;20131;-71
2021/04/12 06:32:26;;;;;;;1.80;1.30;;;3.10;99.90;;;;;;5040652;28;20392;-72
2021/04/12 06:35:24;;;;;;;5.35;2.17;;;3.10;99.90;;;;;;5063593;28;20430;-72
2021/04/12 06:38:08;;;;;;;2.75;1.27;;;3.10;99.90;;;;;;5051717;28;20436;-72
2021/04/12 06:40:59;;;;;;;1.63;1.33;;;3.10;99.90;;;;;;5063942;28;20052;-73
2021/04/12 06:43:56;;;;;;;2.58;1.83;;;3.10;99.90;;;;;;5060687;28;20128;-71
2021/04/12 06:46:46;;;;;;;2.65;1.60;;;3.00;99.90;;;;;;5057513;28;20028;-72
2021/04/12 06:49:42;;;;;;;3.67;1.65;;;3.00;99.90;;;;;;5057258;28;20067;-72
2021/04/12 06:52:34;;;;;;;3.83;1.70;;;2.90;99.90;;;;;;5059206;28;20045;-74
2021/04/12 06:57:55;;;;;;;3.05;1.70;;;2.80;99.90;;;;;;5068116;28;20048;-74
2021/04/12 07:00:44;;;;;;;4.22;2.05;;;2.90;99.90;;;;;;5059960;28;20491;-73
2021/04/12 07:03:33;;;;;;;1.67;1.40;;;3.00;99.90;;;;;;5076104;28;20086;-73
2021/04/12 07:06:29;;;;;;;2.90;1.67;;;3.10;99.90;;;;;;5058073;28;20021;-72
2021/04/12 07:09:16;;;;;;;2.15;1.42;;;3.30;99.90;;;;;;5064797;28;20053;-75
2021/04/12 07:11:41;;;;;;;4.78;1.92;;;3.40;99.90;;;;;;5072393;28;20033;-73
2021/04/12 07:14:44;;;;;;;3.33;2.00;;;3.50;99.90;;;;;;5072836;28;20534;-73
2021/04/12 07:17:40;;;;;;;2.28;1.80;;;3.60;99.90;;;;;;5072619;28;20025;-75
2021/04/12 07:20:49;;;;;;;2.25;1.80;;;3.70;99.90;;;;;;5072187;28;20115;-74
2021/04/12 07:23:45;;;;;;;4.50;2.13;;;3.90;99.90;;;;;;5072817;28;20013;-73
2021/04/12 07:26:40;;;;;;;5.05;1.88;;;4.10;99.90;;;;;;5055044;28;20119;-74
2021/04/12 07:29:17;;;;;;;4.85;1.50;;;4.30;99.90;;;;;;5073074;28;20090;-75
2021/04/12 07:32:29;;;;;;;1.90;1.35;;;4.30;99.90;;;;;;5073164;28;20051;-74
2021/04/12 07:35:10;;;;;;;2.10;1.55;;;4.30;99.90;;;;;;5075894;28;20028;-74
2021/04/12 07:37:54;;;;;;;;;;;4.20;99.90;;;;;;5072859;28;20024;-75
2021/04/12 07:40:34;;;;;;;2.45;1.50;;;4.00;99.90;;;;;;5056556;28;19912;-74
2021/04/12 07:43:47;;;;;;;1.55;1.30;;;3.90;99.90;;;;;;5056998;28;20472;-74
2021/04/12 07:46:47;;;;;;;1.42;1.15;;;3.70;99.90;;;;;;5018673;28;20185;-73
2021/04/12 07:49:50;;;;;;;2.90;1.60;;;3.50;99.90;;;;;;5027384;28;20044;-74
2021/04/12 07:52:53;;;;;;;3.40;2.13;;;3.50;99.90;;;;;;5025139;28;20489;-75
2021/04/12 07:55:39;;;;;;;2.08;1.40;;;3.40;99.90;;;;;;5016304;28;20406;-73
2021/04/12 07:58:41;;;;;;;1.65;1.55;;;3.40;99.90;;;;;;5030589;28;20104;-76
2021/04/12 08:01:24;;;;;;;3.90;1.52;;;3.40;99.90;;;;;;5030893;28;20437;-75
2021/04/12 08:04:27;;;;;;;3.60;2.03;;;3.40;99.90;;;;;;5030016;28;20132;-74
2021/04/12 08:07:10;;;;;;;3.58;1.90;;;3.50;99.90;;;;;;5029863;28;20095;-75
2021/04/12 08:09:46;;;;;;;5.00;1.90;;;3.60;99.90;;;;;;5029666;28;20591;-73
2021/04/12 08:12:30;;;;;;;4.38;1.83;;;3.80;99.90;;;;;;5026894;28;20030;-73
2021/04/12 08:15:19;;;;;;;4.95;2.17;;;5.10;99.90;;;;;;5035143;28;20091;-74
2021/04/12 08:18:12;;;;;;;4.57;2.30;;;4.40;99.90;;;;;;5054765;28;20062;-75
2021/04/12 08:21:02;;;;;;;2.97;2.10;;;4.60;99.90;;;;;;5052097;28;20539;-75
2021/04/12 08:24:05;;;;;;;11.30;6.50;;;4.60;99.90;;;;;;5053743;28;20025;-76
2021/04/12 08:27:10;;;;;;;6.13;3.58;;;4.40;99.90;;;;;;5054890;28;20852;-76
2021/04/12 08:30:06;;;;;;;3.45;2.28;;;4.20;99.90;;;;;;5048178;28;20065;-75
2021/04/12 08:32:50;;;;;;;5.95;3.58;;;4.00;99.90;;;;;;5045738;28;20112;-78
2021/04/12 08:35:31;;;;;;;5.10;3.10;;;3.80;99.90;;;;;;5044012;28;20048;-77
2021/04/12 08:38:31;;;;;;;3.13;2.25;;;3.70;99.90;;;;;;5043664;28;20021;-77
2021/04/12 08:41:17;;;;;;;2.50;2.30;;;3.70;99.90;;;;;;5046295;28;20027;-77
2021/04/12 08:43:58;;;;;;;15.25;10.15;;;3.70;99.90;;;;;;5046245;28;20068;-74
2021/04/12 08:47:08;;;;;;;9.73;7.60;;;3.80;99.90;;;;;;5053700;28;20029;-75
2021/04/12 08:50:11;;;;;;;4.95;2.78;;;3.90;99.90;;;;;;5036956;28;20044;-77
2021/04/12 08:53:10;;;;;;;2.80;2.60;;;3.90;99.90;;;;;;5045178;28;20047;-76
2021/04/12 08:56:14;;;;;;;7.90;3.08;;;4.00;99.90;;;;;;5046468;28;20020;-74
2021/04/12 08:59:19;;;;;;;3.47;2.88;;;4.00;99.90;;;;;;5050838;28;20100;-75
2021/04/12 09:01:57;;;;;;;1.95;1.85;;;4.00;99.90;;;;;;5059351;28;20437;-76
2021/04/12 09:04:58;;;;;;;4.07;2.13;;;3.80;99.90;;;;;;5052617;28;20077;-75
2021/04/12 09:07:53;;;;;;;2.80;1.70;;;3.70;99.90;;;;;;5050072;28;20032;-77
2021/04/12 09:10:38;;;;;;;2.58;2.38;;;3.50;99.90;;;;;;5081534;28;20028;-76
2021/04/12 09:13:32;;;;;;;1.83;1.20;;;3.40;99.90;;;;;;5088632;28;20024;-75
2021/04/12 09:16:17;;;;;;;1.52;1.42;;;3.40;99.90;;;;;;5077155;28;20055;-75
2021/04/12 09:18:59;;;;;;;3.45;1.33;;;3.50;99.90;;;;;;5085522;28;20031;-75
2021/04/12 09:21:51;;;;;;;0.80;0.70;;;3.70;99.90;;;;;;5080283;28;20115;-75
2021/04/12 09:24:23;;;;;;;2.10;0.80;;;3.70;99.90;;;;;;5085936;28;20027;-75
2021/04/12 09:27:00;;;;;;;1.08;0.93;;;3.70;99.90;;;;;;5066556;28;20570;-75
2021/04/12 09:30:02;;;;;;;1.73;1.20;;;3.60;99.90;;;;;;5081362;28;20024;-75
2021/04/12 09:32:44;;;;;;;3.67;1.17;;;3.50;99.90;;;;;;5084365;28;20407;-74
2021/04/12 09:35:36;;;;;;;4.95;3.10;;;3.60;99.90;;;;;;5084846;28;20020;-71
2021/04/12 09:38:20;;;;;;;6.10;4.10;;;3.70;99.90;;;;;;5077263;28;20034;-73
2021/04/12 09:41:10;;;;;;;3.60;1.70;;;3.90;99.90;;;;;;5067177;28;20460;-73
2021/04/12 09:44:12;;;;;;;2.03;1.48;;;4.20;99.90;;;;;;5064843;28;20020;-74
2021/04/12 09:47:01;;;;;;;1.00;0.90;;;4.50;99.90;;;;;;5067573;28;20032;-74
2021/04/12 09:50:02;;;;;;;0.80;0.60;;;4.50;99.90;;;;;;5065775;28;20028;-73
2021/04/12 09:52:46;;;;;;;0.73;0.70;;;4.70;99.90;;;;;;5064137;28;20029;-74
2021/04/12 09:55:45;;;;;;;1.08;0.98;;;4.90;99.90;;;;;;5064977;28;20048;-73
2021/04/12 09:58:29;;;;;;;0.60;0.50;;;4.90;99.90;;;;;;5068962;28;20533;-74
2021/04/12 10:01:13;;;;;;;0.90;0.80;;;4.90;99.90;;;;;;5073279;28;20073;-74
2021/04/12 10:04:06;;;;;;;1.63;1.52;;;5.00;99.90;;;;;;5068970;28;20040;-73
2021/04/12 10:06:43;;;;;;;3.13;1.15;;;5.10;99.90;;;;;;5068322;28;20063;-74
2021/04/12 10:09:21;;;;;;;2.83;1.10;;;5.20;99.90;;;;;;5084218;28;20040;-75
2021/04/12 10:12:05;;;;;;;1.27;1.10;;;5.10;99.90;;;;;;5087912;28;20039;-74
2021/04/12 10:14:37;;;;;;;2.88;2.00;;;5.10;99.90;;;;;;5077599;28;20443;-73
2021/04/12 10:17:10;;;;;;;3.13;2.10;;;5.10;99.90;;;;;;5077108;28;20039;-74
2021/04/12 10:19:50;;;;;;;2.78;2.00;;;5.10;99.90;;;;;;5088656;28;20882;-73
2021/04/12 10:22:19;;;;;;;1.27;1.17;;;5.10;99.90;;;;;;5085964;28;20491;-72
2021/04/12 10:24:47;;;;;;;1.30;1.20;;;4.90;99.90;;;;;;5090572;28;20028;-73
2021/04/12 10:27:12;;;;;;;3.33;1.73;;;4.80;99.90;;;;;;5086722;28;20016;-74
2021/04/12 10:29:47;;;;;;;6.18;4.30;;;4.80;99.90;;;;;;5091796;28;20086;-74
2021/04/12 10:32:35;;;;;;;42.10;18.98;;;4.70;99.90;;;;;;5088204;28;20355;-73
2021/04/12 10:35:15;;;;;;;24.08;11.85;;;4.70;99.90;;;;;;5087531;28;20511;-74
2021/04/12 10:37:46;;;;;;;4.22;2.70;;;4.80;99.90;;;;;;5084336;28;20524;-74
2021/04/12 10:40:27;;;;;;;3.92;3.25;;;4.80;99.90;;;;;;5077303;28;20052;-74
2021/04/12 10:43:11;;;;;;;2.13;1.42;;;5.10;99.90;;;;;;5066146;28;20033;-74
2021/04/12 10:45:46;;;;;;;1.58;1.33;;;5.10;99.90;;;;;;5073897;28;20060;-74
2021/04/12 10:48:21;;;;;;;2.25;1.38;;;5.30;99.90;;;;;;5070684;28;20017;-74
2021/04/12 10:51:01;;;;;;;1.98;1.73;;;5.50;99.90;;;;;;5070580;28;20071;-74
2021/04/12 10:53:35;;;;;;;4.57;1.38;;;5.70;99.90;;;;;;5076579;28;20119;-75
2021/04/12 10:56:36;;;;;;;2.25;1.50;;;5.90;99.90;;;;;;5077011;28;20082;-74
2021/04/12 10:59:16;;;;;;;3.08;1.10;;;6.10;99.90;;;;;;5076185;28;20020;-74
2021/04/12 11:02:07;;;;;;;1.40;1.27;;;6.30;99.90;;;;;;5077076;28;20180;-75
2021/04/12 11:04:44;;;;;;;2.63;1.35;;;6.30;99.90;;;;;;5078532;28;20024;-75
2021/04/12 11:07:18;;;;;;;2.55;1.20;;;6.40;99.90;;;;;;5078837;28;20032;-74
2021/04/12 11:09:51;;;;;;;2.25;1.58;;;6.50;99.90;;;;;;5076296;28;20074;-74
2021/04/12 11:12:17;;;;;;;4.03;1.58;;;6.70;99.90;;;;;;5075753;28;20024;-75
2021/04/12 11:15:03;;;;;;;3.53;1.42;;;6.80;99.90;;;;;;5079410;28;21173;-74
2021/04/12 11:17:39;;;;;;;2.30;1.45;;;6.70;99.90;;;;;;5075019;28;20028;-75
2021/04/12 11:20:14;;;;;;;3.13;1.30;;;6.80;99.90;;;;;;5081653;28;20120;-74
2021/04/12 11:22:43;;;;;;;2.03;1.17;;;7.00;99.90;;;;;;5080596;28;20046;-73
2021/04/12 11:25:21;;;;;;;3.47;1.23;;;7.10;99.90;;;;;;5088330;28;20027;-74
2021/04/12 11:27:56;;;;;;;2.40;1.50;;;7.20;99.90;;;;;;5082395;28;20024;-73
2021/04/12 11:30:48;;;;;;;1.55;1.30;;;7.30;99.90;;;;;;5081779;28;20106;-74
2021/04/12 11:33:32;;;;;;;2.85;1.50;;;7.60;99.90;;;;;;5085884;28;20016;-74
2021/04/12 11:36:20;;;;;;;1.92;1.08;;;7.90;99.90;;;;;;5086373;28;20478;-73
2021/04/12 11:39:19;;;;;;;4.10;1.60;;;8.10;99.90;;;;;;5086687;28;20089;-73
2021/04/12 11:41:54;;;;;;;3.45;1.13;;;8.20;99.90;;;;;;5090833;28;20514;-74
2021/04/12 11:44:26;;;;;;;5.03;1.63;;;8.40;99.90;;;;;;5086432;28;20035;-75
2021/04/12 11:46:55;;;;;;;1.88;1.40;;;8.40;99.90;;;;;;5087669;28;20028;-74
2021/04/12 11:49:44;;;;;;;3.72;1.50;;;8.40;99.90;;;;;;5088585;28;20082;-75
2021/04/12 11:52:20;;;;;;;4.82;1.63;;;8.40;99.90;;;;;;5088294;28;20377;-73
2021/04/12 11:55:14;;;;;;;3.88;1.27;;;8.30;99.90;;;;;;5086018;28;20023;-74
2021/04/12 11:57:57;;;;;;;4.13;1.30;;;8.20;99.90;;;;;;5087156;28;20249;-74
2021/04/12 12:00:48;;;;;;;2.92;1.42;;;8.20;99.90;;;;;;5085434;28;20027;-74
2021/04/12 12:03:26;;;;;;;;;;;8.40;99.90;;;;;;5083823;28;20027;-75
2021/04/12 12:06:16;;;;;;;1.77;1.02;;;8.50;99.90;;;;;;5088748;28;19999;-74
2021/04/12 12:09:13;;;;;;;2.35;1.40;;;8.40;99.90;;;;;;5082161;28;20126;-75
2021/04/12 12:12:00;;;;;;;5.07;1.20;;;8.20;99.90;;;;;;5085073;28;20066;-74
2021/04/12 12:14:55;;;;;;;7.10;1.92;;;8.10;99.90;;;;;;5071534;28;20075;-74
2021/04/12 12:17:25;;;;;;;1.55;1.27;;;8.30;99.90;;;;;;5066245;28;20017;-75
2021/04/12 12:20:17;;;;;;;3.45;1.20;;;8.40;99.90;;;;;;5064604;28;20017;-74
2021/04/12 12:22:49;;;;;;;2.65;1.20;;;8.40;99.90;;;;;;5059748;28;20041;-74
2021/04/12 12:25:36;;;;;;;5.95;1.25;;;8.50;99.90;;;;;;5067428;28;20023;-74
2021/04/12 12:28:26;;;;;;;7.00;1.70;;;8.50;99.90;;;;;;5064855;28;20480;-74
2021/04/12 12:31:10;;;;;;;2.30;1.10;;;8.70;99.90;;;;;;5064661;28;20077;-74
2021/04/12 12:33:46;;;;;;;3.08;1.40;;;8.80;99.90;;;;;;5065520;28;20035;-74
2021/04/12 12:36:44;;;;;;;5.10;1.63;;;8.80;99.90;;;;;;5063785;28;20074;-73
2021/04/12 12:39:25;;;;;;;3.55;1.42;;;8.70;99.90;;;;;;5037857;28;20089;-74
2021/04/12 12:41:51;;;;;;;3.78;1.63;;;8.70;99.90;;;;;;5066455;28;20381;-73
2021/04/12 12:44:23;;;;;;;3.15;1.80;;;8.80;99.90;;;;;;5054346;28;20013;-73
2021/04/12 12:46:49;;;;;;;5.03;1.80;;;9.10;99.90;;;;;;5058072;28;20042;-73
2021/04/12 12:49:31;;;;;;;4.80;1.40;;;9.10;99.90;;;;;;5058031;28;20024;-75
2021/04/12 12:52:08;;;;;;;1.55;1.40;;;9.20;99.90;;;;;;5058642;28;20091;-74
2021/04/12 12:54:51;;;;;;;3.60;1.35;;;9.40;99.90;;;;;;5055753;28;20025;-73
2021/04/12 12:57:17;;;;;;;4.68;1.83;;;9.50;97.80;;;;;;5057717;28;20013;-73
2021/04/12 12:59:52;;;;;;;4.45;1.73;;;9.50;99.90;;;;;;5053976;28;20494;-73
2021/04/12 13:02:27;;;;;;;3.60;1.45;;;9.10;99.90;;;;;;5060662;28;20112;-74
2021/04/12 13:05:04;;;;;;;2.08;1.60;;;8.80;99.90;;;;;;5053081;28;20100;-72
2021/04/12 13:07:32;;;;;;;1.92;1.17;;;8.70;99.90;;;;;;5056776;28;20507;-73
2021/04/12 13:10:14;;;;;;;1.65;1.55;;;8.30;99.90;;;;;;5054442;28;20041;-73
2021/04/12 13:12:41;;;;;;;4.30;1.90;;;8.20;99.90;;;;;;5055972;28;20080;-74
2021/04/12 13:15:27;;;;;;;3.42;1.60;;;8.20;99.90;;;;;;5053274;28;20068;-72
2021/04/12 13:18:03;;;;;;;3.38;1.27;;;7.90;99.90;;;;;;5056738;28;20021;-73
2021/04/12 13:20:38;;;;;;;3.40;1.85;;;7.60;99.90;;;;;;5060294;28;20043;-73
2021/04/12 13:23:31;;;;;;;1.98;1.73;;;7.30;99.90;;;;;;5056651;28;20033;-74
2021/04/12 13:26:32;;;;;;;2.70;1.88;;;7.30;99.90;;;;;;5063291;28;20043;-74
2021/04/12 13:29:03;;;;;;;;;;;7.60;99.90;;;;;;5057711;28;20040;-73
2021/04/12 13:31:50;;;;;;;2.72;2.10;;;7.70;99.90;;;;;;5059703;28;20315;-73
2021/04/12 13:34:20;;;;;;;5.38;2.45;;;8.10;99.90;;;;;;5058458;28;20536;-73
2021/04/12 13:37:25;;;;;;;4.57;1.90;;;8.30;99.90;;;;;;5059297;28;20164;-72
2021/04/12 13:40:22;;;;;;;4.13;2.45;;;8.40;99.90;;;;;;5064935;28;20093;-74
2021/04/12 13:43:02;;;;;;;5.80;2.08;;;8.60;99.90;;;;;;5074936;28;20063;-73
2021/04/12 13:45:36;;;;;;;3.35;2.30;;;8.90;99.90;;;;;;5059813;28;20381;-72
2021/04/12 13:48:12;;;;;;;1.67;1.58;;;9.10;99.90;;;;;;5056193;28;20025;-73
2021/04/12 13:50:59;;;;;;;3.08;1.73;;;9.30;99.50;;;;;;5060391;28;20064;-75
2021/04/12 13:53:57;;;;;;;2.20;1.40;;;9.30;94.70;;;;;;5060897;28;20029;-74
2021/04/12 13:56:36;;;;;;;2.95;1.67;;;9.40;93.10;;;;;;5067329;28;20062;-75
2021/04/12 13:59:08;;;;;;;2.17;1.30;;;9.60;93.00;;;;;;5066731;28;20100;-74
2021/04/12 14:02:03;;;;;;;2.72;1.60;;;9.80;94.90;;;;;;5069439;28;20722;-74
2021/04/12 14:04:41;;;;;;;2.05;1.20;;;10.00;92.60;;;;;;5071608;28;20127;-75
2021/04/12 14:07:17;;;;;;;4.95;1.42;;;10.10;88.40;;;;;;5068248;28;20044;-75
2021/04/12 14:10:02;;;;;;;7.30;1.73;;;9.90;85.70;;;;;;5071566;28;20052;-75
2021/04/12 14:12:33;;;;;;;1.52;1.20;;;9.60;88.70;;;;;;5070688;28;20459;-75
2021/04/12 14:15:01;;;;;;;;;;;9.50;90.70;;;;;;5071129;28;20088;-75
2021/04/12 14:17:29;;;;;;;4.20;1.23;;;9.50;91.40;;;;;;5052845;28;20372;-75
2021/04/12 14:20:07;;;;;;;3.47;1.50;;;9.60;89.40;;;;;;5066945;28;20166;-75
2021/04/12 14:22:39;;;;;;;1.90;1.55;;;9.40;86.90;;;;;;5065522;28;20036;-76
2021/04/12 14:25:17;;;;;;;3.88;2.00;;;9.30;91.20;;;;;;5072921;28;20099;-76
2021/04/12 14:27:43;;;;;;;3.95;1.88;;;9.20;90.80;;;;;;5073101;28;21011;-75
2021/04/12 14:30:20;;;;;;;2.10;1.25;;;9.20;88.00;;;;;;5070307;28;20024;-76
2021/04/12 14:32:50;;;;;;;4.30;1.50;;;9.30;90.00;;;;;;5070812;28;20028;-75
2021/04/12 14:35:37;;;;;;;3.05;1.33;;;9.40;90.40;;;;;;5065503;28;20048;-75
2021/04/12 14:38:16;;;;;;;8.23;2.20;;;9.20;89.90;;;;;;5071381;28;20021;-74